Farafra, Egypt
Current Conditions -  °F | °C
As of 4:00 AM on Thursday 23 Oct 2014 (Local Time) from HESG Reporting Station
Clear Clear  
Wind Chill: 63°   Ceiling: Unl
Heat Index: 63°   Visibility: 6mi
Dew Point: 50°   Wind: 3mph
Humidity: 63%   Direction: 300°WNW
Pressure: 29.97"   Gusts: NA
Location:  27.05°N, 27.47°E
Report Text: HESG 230200Z 30003KT CAVOK 17/10 Q1015 NOSIG
Loading
Personal Weather Stations






























Interactive Weather Map
Tropical Storm Tracking
New forecast layout! Learn more

10-Day Weather Forecast

Advertisements
Track Severe Weather on mobile